Time;durP1;ratioP1;P1;durP2;ratioP2;P2;SDS_P1;SDS_P2;PMS_P1;PMS_P2;Temp;Humidity;BMP_temperature;BMP_pressure;BME280_temperature;BME280_humidity;BME280_pressure;Samples;Min_cycle;Max_cycle;Signal;HPM_P1;HPM_P2
2021/08/12 00:00:26;;;;;;;5.17;4.20;;;16.50;99.90;15.90;97357.00;;;;5072327;28;20235;-86
2021/08/12 00:03:15;;;;;;;10.70;4.33;;;16.40;99.90;15.60;97353.00;;;;5064771;28;20207;-87
2021/08/12 00:06:04;;;;;;;7.93;5.20;;;16.30;99.90;15.60;97346.00;;;;5072697;28;20206;-86
2021/08/12 00:08:53;;;;;;;6.43;4.80;;;16.10;99.90;15.50;97354.00;;;;5065080;28;20208;-87
2021/08/12 00:11:42;;;;;;;6.37;4.60;;;15.70;99.90;15.50;97353.00;;;;5052458;28;20228;-87
2021/08/12 00:14:31;;;;;;;4.20;3.87;;;16.00;99.90;15.70;97354.00;;;;5052559;28;20197;-86
2021/08/12 00:17:22;;;;;;;5.60;3.97;;;16.00;99.90;15.70;97353.00;;;;5053666;28;20229;-87
2021/08/12 00:20:12;;;;;;;5.23;4.27;;;15.90;99.90;15.80;97358.00;;;;5053229;28;20224;-87
2021/08/12 00:23:01;;;;;;;6.80;5.57;;;16.00;99.90;16.00;97361.00;;;;5052734;28;20670;-87
2021/08/12 00:25:52;;;;;;;5.47;4.53;;;16.10;99.90;15.80;97363.00;;;;5053766;28;20207;-87
2021/08/12 00:28:41;;;;;;;7.13;5.40;;;16.10;99.90;15.50;97363.00;;;;5054582;28;20212;-88
2021/08/12 00:31:30;;;;;;;8.13;4.53;;;16.00;99.90;15.60;97367.00;;;;5054726;28;20224;-86
2021/08/12 00:34:20;;;;;;;6.27;4.30;;;16.00;99.90;15.80;97364.00;;;;5051892;28;20621;-87
2021/08/12 00:37:09;;;;;;;8.97;4.57;;;16.00;99.90;15.70;97365.00;;;;5052946;28;20196;-87
2021/08/12 00:39:58;;;;;;;7.47;4.30;;;16.00;99.90;15.50;97376.00;;;;5052568;28;20229;-87
2021/08/12 00:42:48;;;;;;;9.03;4.90;;;15.90;99.90;15.40;97365.00;;;;5055049;28;20811;-88
2021/08/12 00:45:37;;;;;;;5.00;4.20;;;15.80;99.90;15.50;97373.00;;;;5062621;28;20219;-87
2021/08/12 00:48:26;;;;;;;8.53;5.10;;;15.80;99.90;15.50;97375.00;;;;5074295;28;20665;-88
2021/08/12 00:51:17;;;;;;;5.20;4.60;;;15.80;99.90;15.40;97371.00;;;;5074316;28;20223;-89
2021/08/12 00:54:06;;;;;;;8.80;5.63;;;15.80;99.90;15.50;97365.00;;;;5073285;28;20206;-87
2021/08/12 00:56:54;;;;;;;4.57;4.17;;;15.80;99.90;15.50;97367.00;;;;5073067;28;20668;-87
2021/08/12 00:59:44;;;;;;;5.47;4.97;;;15.70;99.90;15.40;97355.00;;;;5075290;28;20226;-87
2021/08/12 01:02:33;;;;;;;10.60;5.00;;;15.70;99.90;15.30;97360.00;;;;5073516;28;20204;-87
2021/08/12 01:05:21;;;;;;;6.40;4.80;;;15.70;99.90;15.30;97355.00;;;;5072853;28;20219;-87
2021/08/12 01:08:16;;;;;;;17.97;4.87;;;15.70;99.90;15.40;97364.00;;;;5068507;28;20201;-87
2021/08/12 01:11:23;;;;;;;6.90;4.93;;;15.70;99.90;15.40;97359.00;;;;5052476;28;20594;-87
2021/08/12 01:14:23;;;;;;;8.67;4.90;;;15.70;99.90;15.30;97358.00;;;;5051610;28;20211;-87
2021/08/12 01:17:20;;;;;;;5.53;4.70;;;15.60;99.90;15.20;97361.00;;;;5052929;28;20205;-87
2021/08/12 01:20:43;;;;;;;5.07;4.57;;;15.60;99.90;15.10;97366.00;;;;5052843;28;20235;-87
2021/08/12 01:23:34;;;;;;;5.17;4.63;;;15.50;99.90;15.10;97366.00;;;;5053392;28;20711;-87
2021/08/12 01:26:24;;;;;;;5.17;4.67;;;15.50;99.90;15.10;97351.00;;;;5052206;28;20600;-88
2021/08/12 01:29:23;;;;;;;5.50;5.00;;;15.40;99.90;15.10;97357.00;;;;5051516;28;20233;-87
2021/08/12 01:32:17;;;;;;;6.73;5.10;;;15.40;99.90;15.20;97362.00;;;;5052547;28;20200;-87
2021/08/12 01:35:10;;;;;;;5.60;5.03;;;15.40;99.90;15.10;97368.00;;;;5052393;28;20196;-88
2021/08/12 01:38:04;;;;;;;4.90;4.40;;;15.40;99.90;14.90;97374.00;;;;5053796;28;20213;-87
2021/08/12 01:40:56;;;;;;;7.27;5.57;;;15.40;99.90;14.90;97374.00;;;;5053250;28;20221;-89
2021/08/12 01:43:45;;;;;;;5.63;4.63;;;15.30;99.90;15.00;97377.00;;;;5045957;28;20197;-87
2021/08/12 01:46:36;;;;;;;11.63;5.30;;;15.30;99.90;15.20;97369.00;;;;5068720;28;20200;-87
2021/08/12 01:49:25;;;;;;;5.87;5.20;;;15.30;99.90;15.30;97376.00;;;;5068563;28;20219;-88
2021/08/12 01:52:19;;;;;;;5.77;5.17;;;15.40;99.90;15.40;97369.00;;;;5070883;28;20200;-88
2021/08/12 01:55:10;;;;;;;6.37;5.03;;;15.50;99.90;15.40;97370.00;;;;5069728;28;20211;-87
2021/08/12 01:58:00;;;;;;;4.67;4.27;;;15.50;99.90;15.30;97373.00;;;;5071223;28;20202;-88
2021/08/12 02:00:51;;;;;;;5.13;4.63;;;15.50;99.90;15.20;97369.00;;;;5071284;28;20238;-87
2021/08/12 02:03:42;;;;;;;7.50;4.83;;;15.50;99.90;15.10;97381.00;;;;5071346;28;20200;-87
2021/08/12 02:06:36;;;;;;;5.50;4.60;;;15.50;99.90;15.20;97368.00;;;;5069686;28;20208;-87
2021/08/12 02:09:27;;;;;;;5.63;5.00;;;15.40;99.90;15.10;97376.00;;;;5057789;28;20212;-89
2021/08/12 02:12:16;;;;;;;5.90;4.93;;;15.40;99.90;14.90;97377.00;;;;5050537;28;20201;-89
2021/08/12 02:15:07;;;;;;;5.07;4.50;;;16.30;99.90;14.70;97372.00;;;;5048956;28;20232;-89
2021/08/12 02:17:56;;;;;;;5.53;4.70;;;15.30;99.90;14.80;97377.00;;;;5046563;28;20201;-89
2021/08/12 02:20:49;;;;;;;9.50;5.33;;;15.20;99.90;14.90;97378.00;;;;5048483;28;20225;-88
2021/08/12 02:23:45;;;;;;;11.87;5.77;;;15.20;99.90;15.00;97380.00;;;;5048840;28;20689;-88
2021/08/12 02:26:42;;;;;;;6.40;5.60;;;15.20;99.90;15.10;97375.00;;;;5049062;28;20197;-88
2021/08/12 02:29:32;;;;;;;13.40;5.40;;;15.20;99.90;15.20;97364.00;;;;5049501;28;20201;-89
2021/08/12 02:32:27;;;;;;;6.53;5.50;;;15.30;99.90;15.00;97373.00;;;;5048407;28;20581;-89
2021/08/12 02:35:19;;;;;;;5.20;4.70;;;15.30;99.90;14.90;97364.00;;;;5050453;28;20608;-89
2021/08/12 02:38:12;;;;;;;5.70;5.17;;;15.30;99.90;14.90;97360.00;;;;5049900;28;20201;-89
2021/08/12 02:41:02;;;;;;;6.63;5.43;;;15.30;99.90;14.90;97360.00;;;;5050910;28;20216;-88
2021/08/12 02:43:54;;;;;;;9.40;6.23;;;15.20;99.90;14.90;97350.00;;;;5049239;28;20226;-88
2021/08/12 02:46:45;;;;;;;8.53;5.73;;;15.20;99.90;14.90;97360.00;;;;5069220;28;20206;-88
2021/08/12 02:49:38;;;;;;;6.57;5.27;;;15.20;99.90;14.80;97358.00;;;;5068480;28;20207;-88
2021/08/12 02:52:28;;;;;;;5.27;4.77;;;15.20;99.90;14.80;97356.00;;;;5069608;28;20212;-88
2021/08/12 02:55:18;;;;;;;6.10;5.43;;;15.20;99.90;14.70;97364.00;;;;5069304;28;20242;-88
2021/08/12 02:58:08;;;;;;;8.37;5.07;;;15.10;99.90;14.60;97359.00;;;;5070018;28;20219;-88
2021/08/12 03:00:59;;;;;;;6.30;5.23;;;15.00;99.90;14.60;97358.00;;;;5070077;28;20248;-88
2021/08/12 03:03:49;;;;;;;9.00;5.07;;;15.00;99.90;14.60;97365.00;;;;5069663;28;20199;-88
2021/08/12 03:06:41;;;;;;;9.53;5.83;;;15.00;99.90;14.60;97360.00;;;;5070303;28;20207;-88
2021/08/12 03:09:31;;;;;;;8.57;5.33;;;15.00;99.90;14.50;97364.00;;;;5055822;28;20650;-88
2021/08/12 03:12:22;;;;;;;5.87;5.23;;;14.90;99.90;14.50;97365.00;;;;5049583;28;20222;-88
2021/08/12 03:15:12;;;;;;;9.27;5.63;;;14.90;99.90;14.60;97362.00;;;;5048482;28;20224;-88
2021/08/12 03:18:04;;;;;;;13.30;6.50;;;14.90;99.90;14.30;97369.00;;;;5049737;28;20200;-89
2021/08/12 03:20:53;;;;;;;6.43;5.33;;;14.80;99.90;14.50;97369.00;;;;5049565;28;20752;-88
2021/08/12 03:23:43;;;;;;;5.07;4.57;;;14.80;99.90;14.50;97376.00;;;;5048490;28;20205;-88
2021/08/12 03:26:32;;;;;;;7.27;6.30;;;14.80;99.90;14.60;97374.00;;;;5048449;28;20196;-89
2021/08/12 03:29:22;;;;;;;6.70;5.90;;;14.80;99.90;14.50;97370.00;;;;5048936;28;20250;-89
2021/08/12 03:32:12;;;;;;;5.73;5.27;;;14.80;99.90;14.60;97369.00;;;;5048910;28;20230;-89
2021/08/12 03:35:02;;;;;;;7.10;5.83;;;14.80;99.90;14.80;97367.00;;;;5047916;28;20227;-89
2021/08/12 03:37:52;;;;;;;7.93;7.13;;;14.90;99.90;14.70;97360.00;;;;5052855;28;20192;-89
2021/08/12 03:40:41;;;;;;;6.13;5.13;;;15.00;99.90;14.60;97366.00;;;;5052742;28;20221;-89
2021/08/12 03:43:30;;;;;;;8.00;5.03;;;14.90;99.90;14.50;97365.00;;;;5051986;28;20209;-88
2021/08/12 03:46:19;;;;;;;8.23;5.87;;;14.90;99.90;14.30;97367.00;;;;5068828;28;20586;-90
2021/08/12 03:49:08;;;;;;;7.10;5.60;;;14.80;99.90;14.40;97367.00;;;;5073260;28;20208;-89
2021/08/12 03:51:58;;;;;;;6.07;5.40;;;14.80;99.90;14.40;97360.00;;;;5073210;28;20231;-89
2021/08/12 03:54:47;;;;;;;7.53;5.93;;;14.80;99.90;14.30;97366.00;;;;5072407;28;20586;-89
2021/08/12 03:57:36;;;;;;;6.97;6.27;;;14.70;99.90;14.20;97374.00;;;;5072307;28;20200;-89
2021/08/12 04:00:25;;;;;;;8.27;6.20;;;14.70;99.90;14.10;97374.00;;;;5067908;28;20235;-90
2021/08/12 04:03:14;;;;;;;8.50;5.47;;;14.60;99.90;14.30;97378.00;;;;5043382;28;20201;-88
2021/08/12 04:06:03;;;;;;;8.83;6.33;;;14.60;99.90;14.40;97371.00;;;;5051150;28;20197;-88
2021/08/12 04:08:54;;;;;;;9.77;6.47;;;14.60;99.90;14.40;97368.00;;;;5044101;28;20571;-88
2021/08/12 04:11:43;;;;;;;8.03;5.83;;;14.70;99.90;14.30;97362.00;;;;5033856;28;20709;-89
2021/08/12 04:14:32;;;;;;;8.90;6.17;;;14.70;99.90;14.20;97370.00;;;;5033218;28;20201;-89
2021/08/12 04:17:21;;;;;;;6.67;5.97;;;14.60;99.90;14.30;97365.00;;;;5033267;28;20278;-89
2021/08/12 04:20:11;;;;;;;8.10;5.97;;;14.60;99.90;14.40;97373.00;;;;5033349;28;20224;-89
2021/08/12 04:23:19;;;;;;;11.90;6.83;;;14.70;99.90;14.50;97371.00;;;;5031070;28;20228;-89
2021/08/12 04:26:16;;;;;;;6.63;5.93;;;14.60;99.90;14.70;97371.00;;;;5032761;28;20209;-89
2021/08/12 04:29:11;;;;;;;8.50;5.83;;;14.90;99.90;14.60;97374.00;;;;5034591;28;20198;-89
2021/08/12 04:32:09;;;;;;;7.20;6.07;;;14.90;99.90;14.20;97371.00;;;;5048611;28;20700;-89
2021/08/12 04:35:02;;;;;;;10.83;5.73;;;14.70;99.90;14.20;97372.00;;;;5034316;28;20205;-88
2021/08/12 04:37:56;;;;;;;6.57;5.40;;;14.60;99.90;14.20;97365.00;;;;5032206;28;20198;-89
2021/08/12 04:40:52;;;;;;;8.83;7.43;;;14.60;99.90;14.40;97375.00;;;;5033101;28;20720;-89
2021/08/12 04:43:43;;;;;;;8.13;6.63;;;14.70;99.90;14.40;97370.00;;;;5040030;28;20193;-89
2021/08/12 04:46:32;;;;;;;7.90;5.93;;;14.80;99.90;14.50;97370.00;;;;5047430;28;20216;-89
2021/08/12 04:49:23;;;;;;;11.77;6.33;;;14.70;99.90;14.60;97370.00;;;;5040946;28;20220;-89
2021/08/12 04:52:12;;;;;;;9.90;6.07;;;14.80;99.90;14.70;97365.00;;;;5045711;28;20553;-89
2021/08/12 04:55:02;;;;;;;9.50;7.67;;;14.90;99.90;14.60;97375.00;;;;5031516;28;20202;-89
2021/08/12 04:57:51;;;;;;;9.43;6.27;;;15.00;99.90;14.70;97381.00;;;;5032616;28;20689;-89
2021/08/12 05:00:42;;;;;;;6.57;5.93;;;15.00;99.90;14.70;97370.00;;;;5037547;28;20227;-90
2021/08/12 05:03:31;;;;;;;6.87;6.00;;;15.00;99.90;14.80;97366.00;;;;5050832;28;20241;-91
2021/08/12 05:06:20;;;;;;;8.93;5.93;;;15.00;99.90;14.90;97372.00;;;;5051631;28;20204;-90
2021/08/12 05:09:09;;;;;;;9.83;7.93;;;15.20;99.90;15.10;97373.00;;;;5040080;28;20201;-91
2021/08/12 05:11:59;;;;;;;7.47;6.03;;;15.20;99.90;15.10;97377.00;;;;5030993;28;20229;-90
2021/08/12 05:14:49;;;;;;;6.97;5.63;;;15.30;99.90;15.20;97373.00;;;;5039049;28;20700;-90
2021/08/12 05:17:39;;;;;;;9.13;6.03;;;15.40;99.90;15.40;97372.00;;;;5049380;28;20566;-88
2021/08/12 05:20:28;;;;;;;7.80;6.53;;;15.40;99.90;15.50;97379.00;;;;5041730;28;20221;-91
2021/08/12 05:23:17;;;;;;;10.63;6.80;;;15.50;99.90;15.60;97378.00;;;;5040296;28;20205;-89
2021/08/12 05:26:06;;;;;;;7.43;6.33;;;15.70;99.90;15.70;97389.00;;;;5032798;28;20202;-89
2021/08/12 05:28:55;;;;;;;6.57;5.80;;;15.80;99.90;15.70;97374.00;;;;5033273;28;20229;-89
2021/08/12 05:31:44;;;;;;;6.03;5.53;;;15.80;99.90;15.70;97377.00;;;;5036325;28;20702;-88
2021/08/12 05:34:34;;;;;;;6.27;5.27;;;15.90;99.90;16.00;97389.00;;;;5032026;28;20217;-89
2021/08/12 05:37:23;;;;;;;7.63;6.50;;;16.00;99.90;16.00;97380.00;;;;5034712;28;20213;-86
2021/08/12 05:40:13;;;;;;;6.73;5.97;;;16.10;99.90;16.10;97380.00;;;;5053088;28;20608;-86
2021/08/12 05:43:02;;;;;;;6.37;5.77;;;16.20;99.90;16.00;97379.00;;;;5052866;28;20207;-87
2021/08/12 05:45:52;;;;;;;6.63;5.83;;;16.20;99.90;16.00;97379.00;;;;5066542;28;20204;-87
2021/08/12 05:48:41;;;;;;;9.00;6.20;;;16.30;99.90;16.10;97381.00;;;;5074919;28;20214;-87
2021/08/12 05:51:32;;;;;;;9.40;5.73;;;16.30;99.90;16.10;97383.00;;;;5070900;28;20603;-87
2021/08/12 05:54:22;;;;;;;6.87;6.27;;;16.40;99.90;16.30;97385.00;;;;5069644;28;20590;-86
2021/08/12 05:57:11;;;;;;;8.53;6.50;;;16.40;99.90;16.40;97382.00;;;;5070113;28;20227;-87
2021/08/12 06:00:00;;;;;;;6.97;5.87;;;16.50;99.90;16.60;97394.00;;;;5057439;28;20243;-86
2021/08/12 06:02:50;;;;;;;8.47;6.57;;;16.60;99.90;16.60;97384.00;;;;5059225;28;20902;-88
2021/08/12 06:05:40;;;;;;;5.57;5.07;;;16.70;99.90;16.60;97379.00;;;;5061127;28;20201;-87
2021/08/12 06:08:30;;;;;;;11.47;8.07;;;16.80;99.90;16.80;97390.00;;;;5036522;28;20200;-88
2021/08/12 06:11:19;;;;;;;9.87;7.53;;;16.80;99.90;16.90;97381.00;;;;5050497;28;20221;-87
2021/08/12 06:14:08;;;;;;;9.43;6.83;;;17.00;99.90;17.10;97392.00;;;;5048061;28;20220;-86
2021/08/12 06:16:58;;;;;;;10.30;7.03;;;17.10;99.90;17.20;97397.00;;;;5052180;28;20796;-87
2021/08/12 06:19:47;;;;;;;11.80;6.53;;;17.20;99.90;17.50;97378.00;;;;5051671;28;20308;-87
2021/08/12 06:22:36;;;;;;;9.87;7.77;;;17.40;99.90;17.60;97390.00;;;;5048488;28;20205;-87
2021/08/12 06:25:29;;;;;;;10.70;6.87;;;17.50;99.90;17.70;97385.00;;;;5039519;28;20200;-86
2021/08/12 06:28:18;;;;;;;7.10;6.13;;;17.60;99.90;17.90;97383.00;;;;5048160;28;20204;-86
2021/08/12 06:31:11;;;;;;;12.97;7.50;;;17.80;99.90;18.00;97382.00;;;;5057620;28;20242;-87
2021/08/12 06:34:01;;;;;;;14.30;8.23;;;17.90;99.90;18.00;97372.00;;;;5047239;28;20728;-86
2021/08/12 06:36:51;;;;;;;10.70;8.67;;;18.00;99.90;18.20;97377.00;;;;5047650;28;20290;-85
2021/08/12 06:39:41;;;;;;;11.07;6.97;;;18.20;99.90;18.30;97379.00;;;;5047817;28;20750;-86
2021/08/12 06:42:34;;;;;;;14.47;7.97;;;18.20;99.90;18.50;97374.00;;;;5042236;28;20197;-85
2021/08/12 06:45:25;;;;;;;9.53;6.63;;;18.30;99.90;18.70;97381.00;;;;5056135;28;20588;-85
2021/08/12 06:48:21;;;;;;;7.90;7.10;;;18.50;99.90;18.80;97367.00;;;;5049708;28;20203;-85
2021/08/12 06:51:11;;;;;;;13.20;7.53;;;18.70;99.90;19.00;97379.00;;;;5047906;28;20669;-85
2021/08/12 06:54:00;;;;;;;13.07;7.47;;;18.80;99.90;19.10;97380.00;;;;5047412;28;20204;-85
2021/08/12 06:56:49;;;;;;;9.60;7.13;;;19.00;99.90;19.10;97379.00;;;;5047718;28;20225;-85
2021/08/12 06:59:39;;;;;;;9.10;7.00;;;19.10;99.90;19.30;97383.00;;;;5030839;28;20678;-85
2021/08/12 07:02:28;;;;;;;10.97;7.67;;;19.20;99.90;19.60;97379.00;;;;5027479;28;20552;-85
2021/08/12 07:05:18;;;;;;;13.83;7.70;;;19.40;99.90;19.80;97366.00;;;;5027921;28;20212;-85
2021/08/12 07:08:09;;;;;;;10.43;6.60;;;19.50;99.90;19.90;97375.00;;;;5027924;28;20205;-84
2021/08/12 07:10:59;;;;;;;8.93;7.20;;;19.70;99.90;20.20;97387.00;;;;5027865;28;20217;-84
2021/08/12 07:13:49;;;;;;;20.13;7.43;;;19.80;99.90;20.30;97381.00;;;;5028284;28;20227;-84
2021/08/12 07:16:39;;;;;;;12.13;6.57;;;20.00;99.90;20.60;97378.00;;;;5030509;28;20201;-85
2021/08/12 07:19:29;;;;;;;8.17;6.70;;;20.20;99.90;20.80;97392.00;;;;5026541;28;20198;-83
2021/08/12 07:22:19;;;;;;;10.17;6.77;;;20.40;99.90;21.10;97396.00;;;;5041975;28;20204;-85
2021/08/12 07:25:11;;;;;;;9.43;6.60;;;20.60;99.90;21.30;97399.00;;;;5047706;28;20193;-86
2021/08/12 07:28:04;;;;;;;13.00;7.73;;;20.80;99.90;21.50;97387.00;;;;5046049;28;20220;-83
2021/08/12 07:30:54;;;;;;;9.33;7.00;;;21.00;99.90;21.70;97390.00;;;;5028609;28;20225;-84
2021/08/12 07:33:45;;;;;;;10.13;6.40;;;21.30;99.90;21.90;97394.00;;;;5044360;28;20583;-85
2021/08/12 07:36:35;;;;;;;7.70;6.53;;;21.50;99.90;22.20;97386.00;;;;5044991;28;20228;-85
2021/08/12 07:39:24;;;;;;;9.27;5.90;;;21.60;99.90;22.30;97389.00;;;;5028003;28;20197;-85
2021/08/12 07:42:18;;;;;;;7.53;6.23;;;21.90;99.90;22.50;97392.00;;;;5028825;28;20198;-84
2021/08/12 07:45:09;;;;;;;9.30;5.80;;;22.10;99.90;22.70;97384.00;;;;5038702;28;20208;-85
2021/08/12 07:48:01;;;;;;;9.23;6.37;;;22.20;99.90;22.80;97386.00;;;;5047553;28;20204;-84
2021/08/12 07:50:52;;;;;;;8.70;6.40;;;22.40;99.90;23.00;97389.00;;;;5048066;28;20241;-84
2021/08/12 07:53:41;;;;;;;6.90;6.17;;;22.60;99.90;23.10;97385.00;;;;5045217;28;20204;-85
2021/08/12 07:56:30;;;;;;;8.03;6.20;;;22.70;99.90;23.20;97387.00;;;;5028131;28;20205;-83
2021/08/12 07:59:19;;;;;;;8.30;5.70;;;22.90;99.90;23.40;97387.00;;;;5027991;28;20212;-85
2021/08/12 08:02:08;;;;;;;9.07;5.77;;;23.00;99.90;23.60;97388.00;;;;5027558;28;20202;-84
2021/08/12 08:04:57;;;;;;;11.27;5.80;;;23.20;99.90;23.70;97391.00;;;;5028491;28;20201;-85
2021/08/12 08:07:49;;;;;;;6.70;5.60;;;23.30;99.90;23.90;97389.00;;;;5027558;28;20217;-84
2021/08/12 08:10:38;;;;;;;7.47;5.07;;;23.40;99.90;24.00;97385.00;;;;5026968;28;20225;-85
2021/08/12 08:13:27;;;;;;;6.13;5.17;;;23.60;99.90;24.20;97386.00;;;;5026973;28;20205;-86
2021/08/12 08:16:16;;;;;;;8.30;5.07;;;23.70;99.90;24.30;97385.00;;;;5026493;28;20213;-85
2021/08/12 08:19:05;;;;;;;7.37;4.77;;;23.90;99.90;24.50;97391.00;;;;5048925;28;20256;-85
2021/08/12 08:21:54;;;;;;;5.90;5.30;;;24.00;99.90;24.70;97392.00;;;;5058697;28;20217;-86
2021/08/12 08:24:44;;;;;;;6.03;4.77;;;24.20;99.90;24.80;97387.00;;;;5031967;28;20198;-86
2021/08/12 08:27:33;;;;;;;5.47;4.10;;;24.40;99.90;25.00;97388.00;;;;5031334;28;20470;-87
2021/08/12 08:30:22;;;;;;;4.80;3.30;;;24.50;99.90;25.00;97391.00;;;;5050231;28;20228;-87
2021/08/12 08:33:12;;;;;;;5.13;3.80;;;24.60;99.90;25.00;97381.00;;;;5038055;28;20202;-86
2021/08/12 08:36:01;;;;;;;5.60;4.00;;;24.70;99.90;25.30;97388.00;;;;5031556;28;20210;-85
2021/08/12 08:38:50;;;;;;;4.93;4.27;;;24.90;99.90;25.30;97390.00;;;;5031893;28;20608;-86
2021/08/12 08:41:41;;;;;;;5.70;3.40;;;24.90;99.90;25.50;97383.00;;;;5031541;28;20247;-87
2021/08/12 08:44:30;;;;;;;5.47;3.87;;;25.10;99.90;25.40;97374.00;;;;5033056;28;20215;-85
2021/08/12 08:47:21;;;;;;;6.53;4.40;;;25.20;99.90;25.80;97376.00;;;;5071213;28;20229;-86
2021/08/12 08:50:13;;;;;;;4.77;3.93;;;25.20;99.90;25.80;97374.00;;;;5071032;28;20223;-86
2021/08/12 08:53:02;;;;;;;8.70;4.03;;;25.40;99.90;26.00;97386.00;;;;5070623;28;20214;-86
2021/08/12 08:55:52;;;;;;;4.67;4.17;;;25.60;99.90;26.10;97383.00;;;;5070517;28;21039;-86
2021/08/12 08:58:43;;;;;;;4.27;3.87;;;25.70;99.90;26.20;97375.00;;;;5070746;28;20718;-87
2021/08/12 09:01:32;;;;;;;6.70;4.87;;;25.80;99.90;26.50;97375.00;;;;5070683;28;20229;-86
2021/08/12 09:04:21;;;;;;;4.77;3.70;;;26.00;99.90;26.50;97375.00;;;;5046494;28;20225;-86
2021/08/12 09:07:11;;;;;;;7.40;4.47;;;26.10;99.90;26.60;97369.00;;;;5045220;28;20194;-86
2021/08/12 09:10:00;;;;;;;6.67;4.77;;;26.20;99.90;26.60;97377.00;;;;5030629;28;20617;-87
2021/08/12 09:12:51;;;;;;;4.80;4.23;;;26.30;99.90;26.80;97372.00;;;;5046325;28;20212;-86
2021/08/12 09:15:44;;;;;;;4.40;4.00;;;26.30;99.90;27.00;97373.00;;;;5049244;28;20202;-85
2021/08/12 09:18:33;;;;;;;5.33;4.80;;;26.50;99.90;27.10;97367.00;;;;5049400;28;20222;-85
2021/08/12 09:21:22;;;;;;;7.53;4.80;;;26.60;99.90;27.10;97372.00;;;;5033933;28;20223;-87
2021/08/12 09:24:11;;;;;;;5.20;3.80;;;26.70;99.90;27.10;97370.00;;;;5030461;28;20207;-85
2021/08/12 09:27:01;;;;;;;5.00;3.40;;;26.80;99.90;27.40;97375.00;;;;5030429;28;20206;-86
2021/08/12 09:29:50;;;;;;;4.73;4.33;;;26.90;99.90;27.40;97377.00;;;;5029246;28;20226;-86
2021/08/12 09:32:52;;;;;;;5.13;3.80;;;27.00;99.90;27.70;97363.00;;;;5039408;28;20199;-86
2021/08/12 09:35:41;;;;;;;7.37;4.97;;;27.10;99.90;27.40;97364.00;;;;5049453;28;20214;-86
2021/08/12 09:38:30;;;;;;;5.60;4.33;;;27.20;99.90;27.90;97368.00;;;;5034058;28;20221;-87
2021/08/12 09:41:18;;;;;;;11.00;5.10;;;27.30;99.90;27.90;97368.00;;;;5031097;28;20807;-87
2021/08/12 09:44:08;;;;;;;6.17;4.33;;;27.50;99.90;28.10;97362.00;;;;5028855;28;20199;-86
2021/08/12 09:46:58;;;;;;;5.03;4.47;;;27.50;99.90;28.00;97365.00;;;;5044055;28;20261;-85
2021/08/12 09:49:54;;;;;;;7.43;4.13;;;27.70;99.90;27.90;97365.00;;;;5040075;28;20696;-86
2021/08/12 09:52:52;;;;;;;6.23;4.27;;;27.80;99.90;27.10;97357.00;;;;5030344;28;20207;-88
2021/08/12 09:55:42;;;;;;;5.83;4.13;;;27.70;99.90;26.80;97353.00;;;;5029756;28;20274;-86
2021/08/12 09:58:35;;;;;;;7.33;4.77;;;27.40;99.90;27.80;97358.00;;;;5029867;28;20235;-86
2021/08/12 10:01:42;;;;;;;6.60;4.53;;;27.40;99.90;28.20;97346.00;;;;5029985;28;20601;-87
2021/08/12 10:04:37;;;;;;;5.33;4.20;;;27.50;99.90;28.60;97351.00;;;;5034246;28;20577;-87
2021/08/12 10:07:39;;;;;;;6.53;4.83;;;27.80;99.90;28.90;97354.00;;;;5049827;28;20636;-87
2021/08/12 10:10:30;;;;;;;9.93;4.33;;;28.10;99.90;29.10;97343.00;;;;5030049;28;20224;-86
2021/08/12 10:13:19;;;;;;;5.57;4.37;;;28.30;99.90;29.20;97349.00;;;;5029857;28;20693;-86
2021/08/12 10:16:09;;;;;;;7.53;5.63;;;28.50;99.90;29.50;97346.00;;;;5028588;28;20202;-86
2021/08/12 10:19:00;;;;;;;6.80;4.87;;;28.70;99.90;29.10;97343.00;;;;5029597;28;20230;-87
2021/08/12 10:21:49;;;;;;;6.20;4.53;;;28.90;98.80;28.90;97339.00;;;;5040666;28;20226;-87
2021/08/12 10:49:44;;;;;;;6.07;4.90;;;28.80;96.20;29.20;97332.00;;;;5102395;28;20182;-76
2021/08/12 10:52:32;;;;;;;5.73;4.57;;;28.90;95.50;28.80;97329.00;;;;5102182;28;20234;-72
2021/08/12 10:55:22;;;;;;;5.83;4.40;;;29.20;95.10;29.60;97317.00;;;;5080802;28;20211;-72
2021/08/12 10:58:43;;;;;;;6.07;4.77;;;29.10;96.00;30.60;97314.00;;;;5102027;28;20196;-74
2021/08/12 11:01:38;;;;;;;7.07;4.57;;;29.40;95.20;31.10;97315.00;;;;5082731;28;20747;-75
2021/08/12 11:04:53;;;;;;;6.27;5.00;;;29.80;95.50;30.50;97316.00;;;;5092418;28;20588;-75
2021/08/12 11:07:53;;;;;;;6.07;4.20;;;30.10;92.10;31.00;97333.00;;;;5103578;28;20212;-72
2021/08/12 11:10:45;;;;;;;6.70;4.18;;;30.20;92.50;31.20;97310.00;;;;5081341;28;20225;-72
2021/08/12 11:13:34;;;;;;;6.43;5.20;;;30.40;90.70;31.00;97309.00;;;;5080739;28;20746;-71
2021/08/12 11:16:25;;;;;;;5.00;4.50;;;30.60;91.00;30.00;97307.00;;;;5081863;28;20215;-72
2021/08/12 11:19:35;;;;;;;10.85;6.60;;;30.70;87.40;30.50;97299.00;;;;5079893;28;20209;-71
2021/08/12 11:22:33;;;;;;;5.20;4.30;;;30.60;87.10;30.00;97301.00;;;;5099856;28;20229;-73
2021/08/12 11:25:55;;;;;;;5.75;5.00;;;30.50;86.30;29.80;97285.00;;;;5101317;28;20220;-72
2021/08/12 11:28:53;;;;;;;5.28;4.28;;;30.20;86.10;30.50;97288.00;;;;5101604;28;20201;-72
2021/08/12 11:31:55;;;;;;;6.50;4.40;;;30.10;88.00;31.50;97295.00;;;;5101152;28;20225;-72
2021/08/12 11:34:56;;;;;;;5.75;5.03;;;30.40;90.30;32.30;97295.00;;;;5100934;28;20201;-71
2021/08/12 11:37:48;;;;;;;6.88;4.93;;;30.90;89.20;32.40;97291.00;;;;5078616;28;20203;-70
2021/08/12 11:40:37;;;;;;;6.43;4.50;;;31.30;88.60;30.00;97302.00;;;;5081427;28;20277;-73
2021/08/12 11:43:26;;;;;;;4.35;3.95;;;31.20;81.60;31.40;97281.00;;;;5092445;28;20217;-71
2021/08/12 11:46:16;;;;;;;6.07;4.43;;;31.10;81.20;31.00;97277.00;;;;5100776;28;20207;-71
2021/08/12 11:49:06;;;;;;;6.28;4.90;;;31.20;82.00;30.50;97282.00;;;;5101539;28;20198;-70
2021/08/12 11:52:00;;;;;;;5.65;4.05;;;30.90;78.40;29.60;97312.00;;;;5100637;28;20212;-71
2021/08/12 11:55:00;;;;;;;4.93;4.43;;;30.40;79.00;29.50;97338.00;;;;5086965;28;20201;-71
2021/08/12 11:57:50;;;;;;;7.18;5.05;;;30.00;79.90;29.30;97340.00;;;;5087808;28;20196;-70
2021/08/12 12:00:40;;;;;;;7.63;4.70;;;29.60;81.90;29.40;97315.00;;;;5081242;28;20219;-70
2021/08/12 12:03:30;;;;;;;5.97;4.68;;;29.40;82.50;30.60;97271.00;;;;5087980;28;20237;-71
2021/08/12 12:06:38;;;;;;;5.28;4.78;;;29.70;84.60;31.40;97274.00;;;;5081953;28;20200;-71
2021/08/12 12:09:29;;;;;;;6.20;5.30;;;30.20;84.30;31.70;97282.00;;;;5081999;28;20207;-71
2021/08/12 12:12:25;;;;;;;5.03;4.20;;;30.70;82.70;31.30;97269.00;;;;5087997;28;20230;-72
2021/08/12 12:15:30;;;;;;;5.80;4.88;;;30.90;81.80;31.80;97262.00;;;;5087918;28;20209;-71
2021/08/12 12:18:32;;;;;;;5.07;4.60;;;31.30;81.90;32.20;97256.00;;;;5087852;28;20205;-71
2021/08/12 12:21:21;;;;;;;5.35;4.68;;;31.70;80.90;33.10;97253.00;;;;5087461;28;20214;-71
2021/08/12 12:24:10;;;;;;;4.57;4.18;;;32.00;80.10;34.40;97255.00;;;;5086700;28;20225;-70
2021/08/12 12:26:59;;;;;;;7.57;4.40;;;32.50;81.70;34.60;97255.00;;;;5087599;28;20669;-71
2021/08/12 12:29:50;;;;;;;4.03;3.70;;;33.00;78.40;35.10;97259.00;;;;5084614;28;20244;-72
2021/08/12 12:32:41;;;;;;;7.38;4.95;;;33.40;76.80;35.10;97253.00;;;;5082063;28;20222;-70
2021/08/12 12:35:35;;;;;;;6.97;5.05;;;33.70;73.30;34.70;97244.00;;;;5083278;28;20207;-73
2021/08/12 12:38:26;;;;;;;6.28;4.90;;;33.90;69.70;35.40;97252.00;;;;5081040;28;20678;-71
2021/08/12 12:41:15;;;;;;;5.47;4.97;;;34.00;71.40;32.60;97244.00;;;;5086593;28;20210;-71
2021/08/12 12:44:08;;;;;;;4.65;4.20;;;33.90;67.70;32.40;97244.00;;;;5086399;28;20229;-70
2021/08/12 12:46:58;;;;;;;5.70;5.07;;;33.50;66.10;31.00;97290.00;;;;5083865;28;20591;-71
2021/08/12 12:49:47;;;;;;;6.35;4.40;;;32.60;66.70;32.00;97266.00;;;;5088529;28;20682;-73
2021/08/12 12:52:36;;;;;;;5.13;4.63;;;32.10;66.70;30.50;97235.00;;;;5085688;28;20218;-71
2021/08/12 12:55:28;;;;;;;6.10;5.15;;;31.40;71.20;31.60;97237.00;;;;5087897;28;20202;-71
2021/08/12 12:58:19;;;;;;;4.90;4.50;;;31.40;72.10;31.20;97258.00;;;;5088839;28;20201;-70
2021/08/12 13:01:10;;;;;;;4.63;3.92;;;31.20;71.90;32.90;97253.00;;;;5086916;28;20230;-70
2021/08/12 13:04:03;;;;;;;5.00;4.50;;;31.50;73.50;34.10;97265.00;;;;5086232;28;20314;-71